EDDP/LEJ METAR and TAF weather

Enter ICAO airport designator
Station Type Date Time Source
EDDP METAR 2022/01/26 20:20 UTC NOAA

EDDP 262020Z 25012KT 8000 SCT013 OVC017 01/M00 Q1027 TEMPO BKN014


Station Type Date Time Source
EDDP Decoded METAR 2022/01/26 20:20 UTC NOAA

Leipzig-Schkeuditz, Germany (EDDP) 51-25N 012-14E 149M
Jan 26, 2022 - 03:20 PM EST / 2022.01.26 2020 UTC
Wind: from the WSW (250 degrees) at 14 MPH (12 KT):0
Visibility: 4 mile(s):0
Sky conditions: overcast
Temperature: 33 F (1 C)
Windchill: 23 F (-5 C):1
Dew Point: 32 F (0 C)
Relative Humidity: 93%
Pressure (altimeter): 30.33 in. Hg (1027 hPa)
ob: EDDP 262020Z 25012KT 8000 SCT013 OVC017 01/M00 Q1027 TEMPO BKN014
cycle: 20

Station Type Date Time Source
EDDP TAF 2022/01/26 18:27 UTC NOAA

TAF EDDP 261700Z 2618/2718 24012KT 9999 SCT012 BKN020
TEMPO 2618/2712 BKN012 PROB30
TEMPO 2618/2703 4500 -DZ BR BKN009
BECMG 2700/2703 24015G25KT
BECMG 2706/2709 24020G30KT

Example: see airport list